createdAt,value
2022-10-30T00:03:45.404Z,15
2022-10-30T00:08:46.668Z,13
2022-10-30T00:13:45.973Z,18
2022-10-30T00:18:45.985Z,14
2022-10-30T00:23:46.199Z,15
2022-10-30T00:28:46.045Z,15
2022-10-30T00:33:45.914Z,14
2022-10-30T00:38:45.426Z,14
2022-10-30T00:43:45.910Z,13
2022-10-30T00:48:45.952Z,13
2022-10-30T00:53:46.039Z,13
2022-10-30T00:58:46.045Z,13
2022-10-30T01:03:45.463Z,14
2022-10-30T01:08:45.589Z,12
2022-10-30T01:13:45.532Z,14
2022-10-30T01:18:46.247Z,13
2022-10-30T01:23:45.482Z,15
2022-10-30T01:28:46.760Z,16
2022-10-30T01:33:46.116Z,19
2022-10-30T01:38:46.767Z,17
2022-10-30T01:43:46.717Z,12
2022-10-30T01:48:46.163Z,13
2022-10-30T01:53:46.153Z,16
2022-10-30T01:58:45.594Z,18
2022-10-30T02:03:46.803Z,24
2022-10-30T02:08:45.752Z,19
2022-10-30T02:13:45.660Z,20
2022-10-30T02:23:45.639Z,16
2022-10-30T02:28:46.433Z,22
2022-10-30T02:33:46.239Z,18
2022-10-30T02:38:46.244Z,21
2022-10-30T02:43:46.860Z,17
2022-10-30T02:48:46.887Z,15
2022-10-30T02:53:46.225Z,18
2022-10-30T02:58:46.881Z,18
2022-10-30T03:03:46.263Z,15
2022-10-30T03:08:45.720Z,23
2022-10-30T03:13:45.692Z,18
2022-10-30T03:18:46.288Z,20
2022-10-30T03:23:45.708Z,15
2022-10-30T03:28:45.746Z,13
2022-10-30T03:33:46.329Z,19
2022-10-30T03:38:46.329Z,15
2022-10-30T03:43:46.393Z,15
2022-10-30T03:48:46.807Z,14
2022-10-30T03:53:46.410Z,16
2022-10-30T03:58:47.009Z,23
2022-10-30T04:03:46.396Z,12
2022-10-30T04:08:45.814Z,16
2022-10-30T04:13:47.061Z,18
2022-10-30T04:18:46.428Z,15
2022-10-30T04:23:46.431Z,21
2022-10-30T04:28:46.461Z,24
2022-10-30T04:33:46.449Z,20
2022-10-30T04:38:47.181Z,17
2022-10-30T04:43:46.466Z,16
2022-10-30T04:48:46.413Z,19
2022-10-30T04:53:46.384Z,19
2022-10-30T04:58:45.896Z,21
2022-10-30T05:03:48.103Z,17
2022-10-30T05:08:45.897Z,22
2022-10-30T05:13:46.433Z,17
2022-10-30T05:18:45.955Z,17
2022-10-30T05:23:46.586Z,22
2022-10-30T05:28:46.479Z,19
2022-10-30T05:33:46.640Z,17
2022-10-30T05:38:46.634Z,23
2022-10-30T05:43:46.649Z,22
2022-10-30T05:48:46.599Z,17
2022-10-30T05:53:47.312Z,16
2022-10-30T05:58:46.570Z,19
2022-10-30T06:03:46.048Z,17
2022-10-30T06:08:46.676Z,20
2022-10-30T06:13:46.170Z,15
2022-10-30T06:18:52.192Z,15
2022-10-30T06:23:46.655Z,15
2022-10-30T06:28:47.323Z,16
2022-10-30T06:33:47.166Z,17
2022-10-30T06:38:46.100Z,16
2022-10-30T06:43:46.577Z,20
2022-10-30T06:48:46.644Z,15
2022-10-30T06:53:47.229Z,21
2022-10-30T06:58:46.097Z,18
2022-10-30T07:03:47.350Z,22
2022-10-30T07:08:46.643Z,19
2022-10-30T07:13:46.134Z,15
2022-10-30T07:18:46.125Z,18
2022-10-30T07:23:46.669Z,16
2022-10-30T07:28:46.203Z,17
2022-10-30T07:33:46.788Z,20
2022-10-30T07:38:46.172Z,14
2022-10-30T07:43:46.189Z,17
2022-10-30T07:48:46.822Z,17
2022-10-30T07:53:47.406Z,20
2022-10-30T07:58:46.865Z,17
2022-10-30T08:03:46.904Z,16
2022-10-30T08:08:46.942Z,14
2022-10-30T08:13:46.259Z,17
2022-10-30T08:18:46.236Z,17
2022-10-30T08:23:46.915Z,22
2022-10-30T08:28:47.509Z,24
2022-10-30T08:33:46.887Z,20
2022-10-30T08:38:48.760Z,22
2022-10-30T08:43:46.285Z,15
2022-10-30T08:48:46.833Z,19
2022-10-30T08:53:47.604Z,29
2022-10-30T08:58:46.317Z,34
2022-10-30T09:03:46.950Z,29
2022-10-30T09:08:47.016Z,36
2022-10-30T09:13:46.344Z,56
2022-10-30T09:18:46.363Z,36
2022-10-30T09:23:46.989Z,29
2022-10-30T09:28:47.031Z,39
2022-10-30T09:33:46.648Z,37
2022-10-30T09:38:47.678Z,24
2022-10-30T09:43:47.016Z,25
2022-10-30T09:48:46.422Z,37
2022-10-30T09:53:46.480Z,36
2022-10-30T09:58:47.075Z,24
2022-10-30T10:03:47.123Z,26
2022-10-30T10:08:46.630Z,27
2022-10-30T10:13:46.472Z,26
2022-10-30T10:18:46.468Z,27
2022-10-30T10:23:47.204Z,25
2022-10-30T10:28:47.754Z,27
2022-10-30T10:33:47.136Z,27
2022-10-30T10:38:47.042Z,29
2022-10-30T10:43:47.231Z,30
2022-10-30T10:48:47.748Z,28
2022-10-30T10:53:47.675Z,25
2022-10-30T10:58:47.081Z,26
2022-10-30T11:03:47.771Z,26
2022-10-30T11:08:47.144Z,25
2022-10-30T11:13:47.243Z,24
2022-10-30T11:18:46.573Z,24
2022-10-30T11:23:46.630Z,28
2022-10-30T11:28:47.323Z,28
2022-10-30T11:33:47.279Z,29
2022-10-30T11:38:47.184Z,26
2022-10-30T11:43:47.124Z,23
2022-10-30T11:48:47.791Z,24
2022-10-30T11:53:47.158Z,24
2022-10-30T11:58:47.158Z,22
2022-10-30T12:03:47.763Z,22
2022-10-30T12:08:47.588Z,22
2022-10-30T12:13:46.720Z,20
2022-10-30T12:18:47.013Z,20
2022-10-30T12:23:46.736Z,17
2022-10-30T12:28:47.981Z,17
2022-10-30T12:33:47.955Z,17
2022-10-30T12:38:47.370Z,18
2022-10-30T12:43:47.921Z,16
2022-10-30T12:48:47.368Z,15
2022-10-30T12:53:47.274Z,15
2022-10-30T12:58:47.305Z,13
2022-10-30T13:03:47.320Z,13
2022-10-30T13:08:50.140Z,15
2022-10-30T13:13:47.322Z,14
2022-10-30T13:18:46.818Z,16
2022-10-30T13:23:47.482Z,13
2022-10-30T13:28:47.452Z,14
2022-10-30T13:33:48.051Z,15
2022-10-30T13:38:47.600Z,14
2022-10-30T13:43:46.891Z,14
2022-10-30T13:48:47.471Z,15
2022-10-30T13:53:47.457Z,14
2022-10-30T13:58:46.878Z,15
2022-10-30T14:03:46.885Z,16
2022-10-30T14:08:47.033Z,16
2022-10-30T14:13:46.925Z,14
2022-10-30T14:18:46.941Z,15
2022-10-30T14:23:46.936Z,16
2022-10-30T14:28:48.331Z,15
2022-10-30T14:33:46.969Z,16
2022-10-30T14:38:47.555Z,16
2022-10-30T14:43:47.590Z,16
2022-10-30T14:48:47.026Z,17
2022-10-30T14:53:47.610Z,18
2022-10-30T14:58:48.188Z,16
2022-10-30T15:03:47.639Z,16
2022-10-30T15:08:47.094Z,15
2022-10-30T15:13:47.635Z,16
2022-10-30T15:18:47.044Z,17
2022-10-30T15:23:48.365Z,17
2022-10-30T15:28:47.547Z,16
2022-10-30T15:33:48.270Z,15
2022-10-30T15:38:47.073Z,15
2022-10-30T15:43:47.110Z,18
2022-10-30T15:48:48.204Z,14
2022-10-30T15:53:47.607Z,14
2022-10-30T15:58:48.246Z,14
2022-10-30T16:03:48.488Z,15
2022-10-30T16:08:48.263Z,15
2022-10-30T16:13:47.191Z,15
2022-10-30T16:18:47.295Z,16
2022-10-30T16:23:48.382Z,16
2022-10-30T16:28:47.802Z,17
2022-10-30T16:33:48.474Z,17
2022-10-30T16:38:47.810Z,17
2022-10-30T16:43:48.495Z,16
2022-10-30T16:48:47.206Z,17
2022-10-30T16:53:47.313Z,15
2022-10-30T16:58:49.707Z,16
2022-10-30T17:03:47.864Z,14
2022-10-30T17:08:47.839Z,17
2022-10-30T17:13:47.280Z,14
2022-10-30T17:18:47.297Z,14
2022-10-30T17:23:47.870Z,18
2022-10-30T17:28:47.864Z,17
2022-10-30T17:33:47.876Z,16
2022-10-30T17:38:47.911Z,15
2022-10-30T17:43:47.931Z,18
2022-10-30T17:48:48.051Z,18
2022-10-30T17:53:47.354Z,20
2022-10-30T17:58:47.347Z,19
2022-10-30T18:03:47.389Z,16
2022-10-30T18:08:49.599Z,19
2022-10-30T18:13:47.986Z,16
2022-10-30T18:18:47.968Z,14
2022-10-30T18:23:52.652Z,15
2022-10-30T18:28:49.840Z,16
2022-10-30T18:33:47.423Z,17
2022-10-30T18:38:48.906Z,19
2022-10-30T18:43:48.650Z,22
2022-10-30T18:48:48.005Z,18
2022-10-30T18:53:48.047Z,16
2022-10-30T18:58:48.688Z,17
2022-10-30T19:03:47.488Z,17
2022-10-30T19:08:48.068Z,15
2022-10-30T19:13:47.482Z,17
2022-10-30T19:18:47.651Z,17
2022-10-30T19:23:48.127Z,16
2022-10-30T19:28:48.098Z,16
2022-10-30T19:33:51.298Z,16
2022-10-30T19:38:48.127Z,19
2022-10-30T19:43:48.230Z,19
2022-10-30T19:48:57.074Z,16
2022-10-30T19:53:48.799Z,18
2022-10-30T19:58:48.813Z,17
2022-10-30T20:03:48.847Z,17
2022-10-30T20:08:48.191Z,16
2022-10-30T20:13:49.426Z,18
2022-10-30T20:18:47.857Z,16
2022-10-30T20:23:50.222Z,17
2022-10-30T20:28:48.299Z,17
2022-10-30T20:33:48.253Z,17
2022-10-30T20:38:48.347Z,18
2022-10-30T20:43:48.301Z,19
2022-10-30T20:48:48.379Z,17
2022-10-30T20:53:48.365Z,15
2022-10-30T20:58:48.269Z,16
2022-10-30T21:03:48.214Z,16
2022-10-30T21:08:48.265Z,16
2022-10-30T21:13:48.298Z,17
2022-10-30T21:18:47.747Z,14
2022-10-30T21:23:48.235Z,14
2022-10-30T21:28:48.202Z,15
2022-10-30T21:33:48.228Z,17
2022-10-30T21:38:47.766Z,18
2022-10-30T21:43:47.772Z,16
2022-10-30T21:48:48.295Z,16
2022-10-30T21:53:48.284Z,17
2022-10-30T21:58:48.332Z,16
2022-10-30T22:03:48.445Z,19
2022-10-30T22:08:48.902Z,19
2022-10-30T22:13:47.825Z,18
2022-10-30T22:18:47.860Z,12
2022-10-30T22:23:48.482Z,11
2022-10-30T22:28:49.032Z,13
2022-10-30T22:33:48.478Z,12
2022-10-30T22:38:48.988Z,13
2022-10-30T22:43:48.523Z,11
2022-10-30T22:48:48.524Z,11
2022-10-30T22:53:47.900Z,10
2022-10-30T22:58:47.892Z,10
2022-10-30T23:03:48.597Z,15
2022-10-30T23:08:48.404Z,12
2022-10-30T23:13:48.430Z,13
2022-10-30T23:18:53.966Z,10
2022-10-30T23:23:48.516Z,10
2022-10-30T23:28:48.484Z,12
2022-10-30T23:33:49.079Z,10
2022-10-30T23:38:48.495Z,10
2022-10-30T23:43:48.607Z,11
2022-10-30T23:48:48.500Z,13
2022-10-30T23:53:48.596Z,12
2022-10-30T23:58:49.135Z,11
